ENSB/LYR METAR and TAF weather

Enter ICAO airport designator
Station Type Date Time Source
ENSB METAR 2022/11/26 08:50 UTC NOAA

ENSB 260850Z 12008KT 9999 FEW019 M08/M11 Q1018 RMK WIND 1400FT 36002KT


Station Type Date Time Source
ENSB Decoded METAR 2022/11/26 08:50 UTC NOAA

Svalbard Lufthavn, Norway (ENSB) 78-15N 015-28E 29M
Nov 26, 2022 - 03:50 AM EST / 2022.11.26 0850 UTC
Wind: from the ESE (120 degrees) at 9 MPH (8 KT):0
Visibility: greater than 7 mile(s):0
Sky conditions: mostly clear
Temperature: 17 F (-8 C)
Windchill: 5 F (-15 C):1
Dew Point: 12 F (-11 C)
Relative Humidity: 78%
Pressure (altimeter): 30.06 in. Hg (1018 hPa)
ob: ENSB 260850Z 12008KT 9999 FEW019 M08/M11 Q1018 RMK WIND 1400FT 36002KT
cycle: 9

Station Type Date Time Source
ENSB TAF 2022/11/26 06:57 UTC NOAA

TAF ENSB 260500Z 2606/2706 12008KT 9999 FEW012 SCT020
TEMPO 2606/2608 BKN012

Example: see airport list